Time;durP1;ratioP1;P1;durP2;ratioP2;P2;SDS_P1;SDS_P2;PMS_P1;PMS_P2;Temp;Humidity;BMP_temperature;BMP_pressure;BME280_temperature;BME280_humidity;BME280_pressure;Samples;Min_cycle;Max_cycle;Signal;HPM_P1;HPM_P2
2022/07/08 00:00:45;;;;;;;;;;;;;;;19.28;59.84;99806.97;4936241;29;19954;-68
2022/07/08 00:03:14;;;;;;;;;;;;;;;19.25;59.74;99807.06;4936699;29;19923;-68
2022/07/08 00:05:43;;;;;;;;;;;;;;;19.25;59.82;99807.06;4937081;29;20445;-68
2022/07/08 00:08:12;;;;;;;;;;;;;;;19.19;60.43;99802.13;4919737;29;19973;-68
2022/07/08 00:10:41;;;;;;;;;;;;;;;19.22;60.29;99798.56;4936315;29;20376;-68
2022/07/08 00:13:10;;;;;;;;;;;;;;;19.25;60.50;99803.63;4936307;29;19959;-68
2022/07/08 00:15:38;;;;;;;;;;;;;;;19.21;60.76;99794.28;4936310;29;19922;-68
2022/07/08 00:18:07;;;;;;;;;;;;;;;19.14;61.03;99798.00;4937813;29;19966;-68
2022/07/08 00:20:35;;;;;;;;;;;;;;;19.00;61.64;99800.19;4940181;29;19962;-67
2022/07/08 00:23:04;;;;;;;;;;;;;;;18.96;61.86;99794.25;4940045;29;20372;-68
2022/07/08 00:25:33;;;;;;;;;;;;;;;18.96;61.86;99801.16;4940104;29;19968;-67
2022/07/08 00:28:02;;;;;;;;;;;;;;;18.94;62.07;99796.06;4939945;29;20333;-68
2022/07/08 00:30:31;;;;;;;;;;;;;;;18.97;61.57;99798.56;4939629;29;19926;-68
2022/07/08 00:32:59;;;;;;;;;;;;;;;19.03;60.97;99798.34;4939692;29;19954;-67
2022/07/08 00:35:28;;;;;;;;;;;;;;;19.08;61.08;99804.22;4940411;29;19923;-68
2022/07/08 00:37:56;;;;;;;;;;;;;;;19.09;61.30;99794.72;4940088;29;20030;-69
2022/07/08 00:40:25;;;;;;;;;;;;;;;19.12;61.09;99798.03;4939679;29;19934;-68
2022/07/08 00:42:55;;;;;;;;;;;;;;;19.17;60.91;99803.06;4940276;29;19923;-68
2022/07/08 00:45:23;;;;;;;;;;;;;;;19.18;61.20;99794.41;4939428;29;20321;-68
2022/07/08 00:47:52;;;;;;;;;;;;;;;19.18;61.01;99794.41;4939630;29;20029;-68
2022/07/08 00:50:21;;;;;;;;;;;;;;;19.19;61.15;99790.91;4939555;29;19970;-67
2022/07/08 00:52:50;;;;;;;;;;;;;;;19.14;61.09;99790.22;4939228;29;19926;-68
2022/07/08 00:55:19;;;;;;;;;;;;;;;19.02;61.65;99798.41;4939214;29;20369;-67
2022/07/08 00:57:47;;;;;;;;;;;;;;;18.89;62.45;99789.34;4939335;29;20417;-68
2022/07/08 01:00:18;;;;;;;;;;;;;;;18.84;62.40;99798.97;4939141;29;19962;-68
2022/07/08 01:02:47;;;;;;;;;;;;;;;18.69;62.39;99796.00;4939412;29;19922;-69
2022/07/08 01:05:15;;;;;;;;;;;;;;;18.52;62.71;99790.50;4939022;29;19974;-68
2022/07/08 01:07:44;;;;;;;;;;;;;;;18.39;63.37;99789.19;4938874;29;20428;-68
2022/07/08 01:10:12;;;;;;;;;;;;;;;18.34;63.60;99787.63;4938861;29;19923;-68
2022/07/08 01:12:40;;;;;;;;;;;;;;;18.28;64.02;99788.66;4939217;29;20269;-67
2022/07/08 01:15:09;;;;;;;;;;;;;;;18.14;64.67;99780.47;4939161;29;19993;-68
2022/07/08 01:17:43;;;;;;;;;;;;;;;18.01;65.00;99781.72;4939015;29;19923;-67
2022/07/08 01:20:12;;;;;;;;;;;;;;;18.01;65.31;99790.31;4938781;29;19933;-67
2022/07/08 01:22:43;;;;;;;;;;;;;;;17.96;65.84;99786.19;4938719;29;19949;-68
2022/07/08 01:25:11;;;;;;;;;;;;;;;17.87;66.22;99789.03;4938733;29;19923;-68
2022/07/08 01:27:39;;;;;;;;;;;;;;;17.84;66.67;99786.53;4938613;29;19970;-68
2022/07/08 01:30:09;;;;;;;;;;;;;;;17.85;66.78;99783.88;4938276;29;19923;-67
2022/07/08 01:32:39;;;;;;;;;;;;;;;17.93;66.88;99781.09;4938544;29;19923;-68
2022/07/08 01:35:08;;;;;;;;;;;;;;;17.93;66.85;99775.94;4921800;29;19978;-67
2022/07/08 01:37:37;;;;;;;;;;;;;;;17.89;67.03;99782.94;4938762;29;19927;-67
2022/07/08 01:40:08;;;;;;;;;;;;;;;17.88;67.10;99777.78;4938686;29;20021;-68
2022/07/08 01:42:36;;;;;;;;;;;;;;;17.85;67.29;99777.91;4938387;29;20010;-67
2022/07/08 01:45:05;;;;;;;;;;;;;;;17.95;67.00;99775.00;4938291;29;19923;-67
2022/07/08 01:47:33;;;;;;;;;;;;;;;18.02;66.65;99783.41;4938246;29;19923;-68
2022/07/08 01:50:02;;;;;;;;;;;;;;;17.99;66.88;99780.94;4938076;29;19927;-67
2022/07/08 01:52:30;;;;;;;;;;;;;;;17.96;66.73;99784.44;4938154;29;19922;-68
2022/07/08 01:54:59;;;;;;;;;;;;;;;17.87;67.07;99787.31;4938453;29;19922;-67
2022/07/08 01:57:29;;;;;;;;;;;;;;;17.67;67.21;99786.16;4938091;29;19929;-67
2022/07/08 01:59:57;;;;;;;;;;;;;;;17.60;67.49;99787.22;4937786;29;20005;-68
2022/07/08 02:02:26;;;;;;;;;;;;;;;17.58;67.36;99789.00;4938224;29;19955;-67
2022/07/08 02:04:54;;;;;;;;;;;;;;;17.63;67.38;99782.81;4937896;29;19929;-68
2022/07/08 02:07:23;;;;;;;;;;;;;;;17.59;67.32;99786.34;4937845;29;19922;-67
2022/07/08 02:09:51;;;;;;;;;;;;;;;17.52;68.62;99784.84;4938021;29;20274;-68
2022/07/08 02:12:19;;;;;;;;;;;;;;;17.54;68.60;99792.56;4938070;29;19926;-67
2022/07/08 02:14:49;;;;;;;;;;;;;;;17.54;68.71;99787.41;4938273;29;19923;-68
2022/07/08 02:17:18;;;;;;;;;;;;;;;17.52;68.78;99787.41;4938009;29;19938;-67
2022/07/08 02:19:47;;;;;;;;;;;;;;;17.52;69.03;99783.97;4937963;29;19922;-67
2022/07/08 02:22:15;;;;;;;;;;;;;;;17.58;69.06;99791.56;4938095;29;20060;-68
2022/07/08 02:24:44;;;;;;;;;;;;;;;17.54;69.32;99792.56;4938161;29;19970;-68
2022/07/08 02:27:12;;;;;;;;;;;;;;;17.57;69.57;99797.59;4938096;29;19927;-67
2022/07/08 02:29:41;;;;;;;;;;;;;;;17.53;69.63;99790.84;4937410;29;19978;-68
2022/07/08 02:32:11;;;;;;;;;;;;;;;17.55;69.63;99799.38;4937333;29;20004;-68
2022/07/08 02:34:40;;;;;;;;;;;;;;;17.62;69.52;99795.75;4938147;29;19923;-68
2022/07/08 02:37:08;;;;;;;;;;;;;;;17.59;69.29;99798.44;4937376;29;19987;-67
2022/07/08 02:39:37;;;;;;;;;;;;;;;17.58;69.72;99791.56;4937471;29;20015;-68
2022/07/08 02:42:05;;;;;;;;;;;;;;;17.48;69.83;99797.84;4936894;29;19974;-68
2022/07/08 02:44:34;;;;;;;;;;;;;;;17.50;69.88;99796.91;4937549;29;19923;-67
2022/07/08 02:47:03;;;;;;;;;;;;;;;17.53;69.69;99796.00;4937189;29;19930;-68
2022/07/08 02:49:33;;;;;;;;;;;;;;;17.55;69.65;99799.38;4937720;29;19922;-68
2022/07/08 02:52:01;;;;;;;;;;;;;;;17.57;69.97;99802.78;4937614;29;19958;-68
2022/07/08 02:54:30;;;;;;;;;;;;;;;17.67;69.98;99804.22;4937764;29;20290;-67
2022/07/08 02:56:59;;;;;;;;;;;;;;;17.75;69.89;99804.88;4937389;29;19933;-67
2022/07/08 02:59:27;;;;;;;;;;;;;;;17.67;69.89;99810.25;4936858;29;19926;-68
2022/07/08 03:01:55;;;;;;;;;;;;;;;17.68;70.23;99811.09;4937586;29;20436;-68
2022/07/08 03:04:24;;;;;;;;;;;;;;;17.70;70.28;99817.06;4936956;29;19929;-67
2022/07/08 03:06:54;;;;;;;;;;;;;;;17.77;70.21;99814.25;4937131;29;19974;-67
2022/07/08 03:09:22;;;;;;;;;;;;;;;17.79;70.21;99814.22;4937463;29;19970;-68
2022/07/08 03:11:51;;;;;;;;;;;;;;;17.79;69.76;99814.22;4937334;29;19923;-68
2022/07/08 03:14:19;;;;;;;;;;;;;;;17.84;69.69;99812.34;4936760;29;20385;-67
2022/07/08 03:16:48;;;;;;;;;;;;;;;17.89;69.50;99825.97;4936875;29;19926;-67
2022/07/08 03:19:16;;;;;;;;;;;;;;;17.90;69.57;99819.94;4937010;29;20336;-67
2022/07/08 03:21:44;;;;;;;;;;;;;;;17.98;69.09;99820.56;4937288;29;20449;-67
2022/07/08 03:24:14;;;;;;;;;;;;;;;18.11;68.42;99826.22;4936656;29;19927;-67
2022/07/08 03:26:43;;;;;;;;;;;;;;;18.23;67.80;99826.72;4936747;29;19923;-67
2022/07/08 03:29:11;;;;;;;;;;;;;;;18.30;67.19;99830.81;4937075;29;19922;-67
2022/07/08 03:31:40;;;;;;;;;;;;;;;18.35;66.87;99826.34;4936535;29;19923;-67
2022/07/08 03:34:09;;;;;;;;;;;;;;;18.43;66.40;99829.53;4936547;29;19929;-67
2022/07/08 03:36:37;;;;;;;;;;;;;;;18.46;65.99;99834.66;4936882;29;19961;-67
2022/07/08 03:39:05;;;;;;;;;;;;;;;18.51;65.85;99832.78;4937090;29;20365;-67
2022/07/08 03:41:35;;;;;;;;;;;;;;;18.54;65.48;99845.63;4936858;29;19970;-67
2022/07/08 03:44:03;;;;;;;;;;;;;;;18.58;65.26;99846.34;4936444;29;19927;-67
2022/07/08 03:46:32;;;;;;;;;;;;;;;18.63;64.85;99842.75;4936537;29;19975;-67
2022/07/08 03:49:00;;;;;;;;;;;;;;;18.65;64.84;99846.13;4936540;29;19926;-67
2022/07/08 03:51:29;;;;;;;;;;;;;;;18.70;64.83;99841.66;4936726;29;20018;-67
2022/07/08 03:53:57;;;;;;;;;;;;;;;18.77;64.58;99838.88;4939427;29;19923;-67
2022/07/08 03:56:26;;;;;;;;;;;;;;;18.77;64.48;99844.03;4940525;29;20056;-67
2022/07/08 03:58:56;;;;;;;;;;;;;;;18.80;64.26;99843.94;4923523;29;19929;-66
2022/07/08 04:01:24;;;;;;;;;;;;;;;18.80;64.04;99849.13;4940126;29;19954;-67
2022/07/08 04:03:52;;;;;;;;;;;;;;;18.76;64.31;99843.22;4940080;29;19922;-67
2022/07/08 04:06:21;;;;;;;;;;;;;;;18.80;63.97;99849.13;4940377;29;20297;-68
2022/07/08 04:08:50;;;;;;;;;;;;;;;18.81;63.80;99835.31;4940449;29;19923;-68
2022/07/08 04:11:18;;;;;;;;;;;;;;;18.79;63.92;99850.84;4940323;29;19923;-67
2022/07/08 04:13:46;;;;;;;;;;;;;;;18.85;63.75;99842.06;4940307;29;19923;-68
2022/07/08 04:16:16;;;;;;;;;;;;;;;18.87;63.57;99843.72;4939892;29;20391;-67
2022/07/08 04:18:45;;;;;;;;;;;;;;;18.93;63.28;99850.44;4940196;29;20017;-67
2022/07/08 04:21:13;;;;;;;;;;;;;;;18.97;63.45;99852.03;4939815;29;19973;-68
2022/07/08 04:23:42;;;;;;;;;;;;;;;18.95;63.25;99852.09;4940084;29;20288;-67
2022/07/08 04:26:11;;;;;;;;;;;;;;;18.94;63.30;99852.13;4939741;29;19923;-67
2022/07/08 04:28:39;;;;;;;;;;;;;;;18.94;63.07;99842.63;4939710;29;20013;-67
2022/07/08 04:31:08;;;;;;;;;;;;;;;18.98;63.10;99853.72;4939618;29;19922;-67
2022/07/08 04:33:38;;;;;;;;;;;;;;;19.02;62.84;99852.72;4940372;29;19923;-67
2022/07/08 04:36:07;;;;;;;;;;;;;;;19.05;63.11;99852.63;4939594;29;19930;-67
2022/07/08 04:38:35;;;;;;;;;;;;;;;19.09;62.83;99851.63;4939534;29;19938;-67
2022/07/08 04:41:04;;;;;;;;;;;;;;;19.12;62.96;99862.72;4939491;29;20468;-68
2022/07/08 04:43:33;;;;;;;;;;;;;;;19.16;62.82;99866.06;4939460;29;19922;-69
2022/07/08 04:46:01;;;;;;;;;;;;;;;19.15;62.23;99866.94;4939322;29;19923;-68
2022/07/08 04:48:30;;;;;;;;;;;;;;;19.15;62.50;99865.22;4939309;29;19969;-70
2022/07/08 04:51:00;;;;;;;;;;;;;;;19.12;62.60;99861.88;4939550;29;20009;-69
2022/07/08 04:53:28;;;;;;;;;;;;;;;19.18;62.37;99856.50;4939296;29;19922;-68
2022/07/08 04:55:57;;;;;;;;;;;;;;;19.23;62.44;99860.63;4939132;29;19923;-69
2022/07/08 04:58:25;;;;;;;;;;;;;;;19.28;62.42;99863.06;4939933;29;20029;-70
2022/07/08 05:00:54;;;;;;;;;;;;;;;19.27;62.39;99864.81;4938882;29;19926;-69
2022/07/08 05:03:23;;;;;;;;;;;;;;;19.29;62.05;99872.53;4938575;29;20009;-69
2022/07/08 05:05:52;;;;;;;;;;;;;;;19.28;61.92;99870.84;4939394;29;19923;-68
2022/07/08 05:08:22;;;;;;;;;;;;;;;19.31;61.91;99874.19;4939227;29;19977;-68
2022/07/08 05:10:50;;;;;;;;;;;;;;;19.36;61.97;99876.66;4939071;29;19950;-69
2022/07/08 05:13:19;;;;;;;;;;;;;;;19.46;61.82;99880.59;4938796;29;19994;-68
2022/07/08 05:15:47;;;;;;;;;;;;;;;19.55;61.60;99885.50;4938892;29;19923;-69
2022/07/08 05:18:16;;;;;;;;;;;;;;;19.68;61.32;99881.56;4938822;29;19940;-68
2022/07/08 05:20:44;;;;;;;;;;;;;;;19.77;61.23;99888.19;4938715;29;20381;-69
2022/07/08 05:23:13;;;;;;;;;;;;;;;19.86;60.75;99888.72;4939021;29;20307;-70
2022/07/08 05:25:43;;;;;;;;;;;;;;;19.96;60.87;99900.41;4938722;29;19923;-70
2022/07/08 05:28:11;;;;;;;;;;;;;;;20.06;60.54;99891.44;4938932;29;19973;-70
2022/07/08 05:30:39;;;;;;;;;;;;;;;20.10;60.22;99899.09;4939184;29;19929;-70
2022/07/08 05:33:08;;;;;;;;;;;;;;;20.11;60.05;99898.22;4938435;29;19922;-70
2022/07/08 05:35:36;;;;;;;;;;;;;;;20.19;59.84;99901.34;4938472;29;19922;-70
2022/07/08 05:38:05;;;;;;;;;;;;;;;20.29;59.85;99897.56;4938355;29;19934;-69
2022/07/08 05:40:33;;;;;;;;;;;;;;;20.30;59.43;99899.28;4938768;29;19969;-71
2022/07/08 05:43:03;;;;;;;;;;;;;;;20.30;59.15;99899.28;4938399;29;19923;-68
2022/07/08 05:45:32;;;;;;;;;;;;;;;20.38;59.14;99907.59;4938461;29;19923;-69
2022/07/08 05:48:00;;;;;;;;;;;;;;;20.42;58.88;99904.00;4938508;29;20289;-69
2022/07/08 05:50:29;;;;;;;;;;;;;;;20.45;58.93;99909.06;4938235;29;19929;-71
2022/07/08 05:52:57;;;;;;;;;;;;;;;20.55;58.87;99902.63;4938117;29;19978;-71
2022/07/08 05:55:25;;;;;;;;;;;;;;;20.63;58.63;99904.03;4938146;29;19932;-70
2022/07/08 05:57:54;;;;;;;;;;;;;;;20.71;58.39;99908.91;4938976;29;19922;-70
2022/07/08 06:00:24;;;;;;;;;;;;;;;20.76;58.12;99909.59;4938056;29;19930;-70
2022/07/08 06:02:52;;;;;;;;;;;;;;;20.90;57.98;99907.28;4938027;29;20013;-70
2022/07/08 06:05:21;;;;;;;;;;;;;;;20.99;57.70;99901.75;4938272;29;19924;-69
2022/07/08 06:07:49;;;;;;;;;;;;;;;21.09;57.17;99903.09;4937884;29;19958;-68
2022/07/08 06:10:17;;;;;;;;;;;;;;;21.06;56.88;99903.25;4937935;29;19922;-71
2022/07/08 06:12:46;;;;;;;;;;;;;;;21.15;57.00;99910.66;4937665;29;19926;-71
2022/07/08 06:15:14;;;;;;;;;;;;;;;21.21;56.89;99907.78;4936947;29;20444;-69
2022/07/08 06:17:44;;;;;;;;;;;;;;;21.35;56.68;99915.06;4937675;29;19922;-68
2022/07/08 06:20:14;;;;;;;;;;;;;;;21.52;56.31;99911.75;4938022;29;19974;-69
2022/07/08 06:22:50;;;;;;;;;;;;;;;21.65;55.89;99916.38;4937920;29;20400;-70
2022/07/08 06:25:19;;;;;;;;;;;;;;;21.72;55.54;99919.53;4937624;29;19934;-68
2022/07/08 06:27:47;;;;;;;;;;;;;;;21.83;55.24;99917.34;4937410;29;19923;-69
2022/07/08 06:30:16;;;;;;;;;;;;;;;21.87;54.75;99913.72;4937715;29;20025;-70
2022/07/08 06:32:46;;;;;;;;;;;;;;;21.93;54.52;99919.50;4937405;29;20392;-69
2022/07/08 06:35:14;;;;;;;;;;;;;;;21.97;54.46;99921.09;4937694;29;20355;-69
2022/07/08 06:37:43;;;;;;;;;;;;;;;22.10;54.45;99923.16;4937430;29;19926;-68
2022/07/08 06:40:12;;;;;;;;;;;;;;;22.24;53.94;99919.03;4937230;29;20009;-69
2022/07/08 06:42:40;;;;;;;;;;;;;;;22.34;53.75;99929.88;4937574;29;20421;-70
2022/07/08 06:45:09;;;;;;;;;;;;;;;22.42;53.40;99933.81;4937539;29;20279;-69
2022/07/08 06:47:38;;;;;;;;;;;;;;;22.56;53.11;99930.56;4937496;29;20361;-69
2022/07/08 06:50:08;;;;;;;;;;;;;;;22.65;52.94;99928.41;4937164;29;20009;-69
2022/07/08 06:52:37;;;;;;;;;;;;;;;22.79;52.73;99937.38;4937093;29;19978;-70
2022/07/08 06:55:05;;;;;;;;;;;;;;;22.92;52.75;99938.47;4920314;29;19974;-70
2022/07/08 06:57:34;;;;;;;;;;;;;;;22.99;52.08;99939.84;4936964;29;20025;-69
2022/07/08 07:00:04;;;;;;;;;;;;;;;23.00;51.62;99938.97;4936781;29;20365;-69
2022/07/08 07:02:50;;;;;;;;;;;;;;;23.02;51.55;99935.38;4936858;29;19958;-69
2022/07/08 07:05:20;;;;;;;;;;;;;;;23.12;51.67;99946.19;4936812;29;20321;-69
2022/07/08 07:07:49;;;;;;;;;;;;;;;23.23;51.11;99944.75;4937222;29;20365;-69
2022/07/08 07:10:17;;;;;;;;;;;;;;;23.24;51.10;99953.41;4937143;29;19923;-68
2022/07/08 07:12:45;;;;;;;;;;;;;;;23.17;51.00;99957.22;4937048;29;19987;-68
2022/07/08 07:15:14;;;;;;;;;;;;;;;23.23;51.23;99955.16;4937039;29;19991;-68
2022/07/08 07:17:43;;;;;;;;;;;;;;;23.26;50.79;99964.59;4934453;29;19927;-69
2022/07/08 07:20:12;;;;;;;;;;;;;;;23.30;50.73;99966.13;4936840;29;19923;-68
2022/07/08 07:22:42;;;;;;;;;;;;;;;23.40;50.68;99962.19;4927269;29;19946;-69
2022/07/08 07:25:10;;;;;;;;;;;;;;;23.54;50.81;99956.34;4918002;29;19923;-69
2022/07/08 07:27:42;;;;;;;;;;;;;;;23.68;51.07;99959.91;4918491;29;19955;-69
2022/07/08 07:30:10;;;;;;;;;;;;;;;23.73;50.27;99968.34;4927518;29;20370;-69
2022/07/08 07:32:39;;;;;;;;;;;;;;;23.77;49.75;99966.47;4927673;29;20325;-69
2022/07/08 07:35:08;;;;;;;;;;;;;;;23.79;49.57;99960.25;4936365;29;19946;-69
2022/07/08 07:37:37;;;;;;;;;;;;;;;23.86;49.35;99966.00;4936840;29;20306;-67
2022/07/08 07:40:08;;;;;;;;;;;;;;;23.94;49.16;99964.69;4919772;29;19922;-69
2022/07/08 07:42:37;;;;;;;;;;;;;;;24.02;49.41;99968.69;4936611;29;19958;-69
2022/07/08 07:45:06;;;;;;;;;;;;;;;24.10;49.50;99963.94;4936706;29;19922;-69
2022/07/08 07:47:34;;;;;;;;;;;;;;;24.18;49.13;99967.00;4936489;29;19929;-71
2022/07/08 07:50:03;;;;;;;;;;;;;;;24.19;48.38;99968.66;4936454;29;20399;-69
2022/07/08 07:52:32;;;;;;;;;;;;;;;24.16;48.47;99966.22;4936368;29;19922;-69
2022/07/08 07:55:00;;;;;;;;;;;;;;;24.25;48.65;99963.13;4919953;29;19923;-69
2022/07/08 07:57:37;;;;;;;;;;;;;;;24.43;48.64;99972.59;4936472;29;20296;-71
2022/07/08 08:00:06;;;;;;;;;;;;;;;24.49;47.74;99967.91;4934368;29;19922;-70
2022/07/08 08:02:39;;;;;;;;;;;;;;;24.52;47.19;99967.75;4917440;29;19923;-69
2022/07/08 08:05:09;;;;;;;;;;;;;;;24.54;47.14;99959.84;4917408;29;19923;-69
2022/07/08 08:07:38;;;;;;;;;;;;;;;24.57;47.12;99965.72;4917369;29;19974;-70
2022/07/08 08:10:07;;;;;;;;;;;;;;;24.68;46.95;99967.78;4900705;29;20022;-69
2022/07/08 08:12:36;;;;;;;;;;;;;;;24.76;47.32;99968.22;4917276;29;19971;-69
2022/07/08 08:15:05;;;;;;;;;;;;;;;24.79;46.70;99970.66;4920719;29;20310;-69
2022/07/08 08:17:36;;;;;;;;;;;;;;;24.79;46.58;99969.81;4928836;29;19970;-70
2022/07/08 08:20:05;;;;;;;;;;;;;;;24.86;46.57;99966.78;4936651;29;20270;-69
2022/07/08 08:22:33;;;;;;;;;;;;;;;24.93;46.15;99973.38;4936515;29;19922;-70
2022/07/08 08:25:09;;;;;;;;;;;;;;;24.97;45.97;99969.69;4935303;29;20341;-70
2022/07/08 08:27:41;;;;;;;;;;;;;;;24.95;45.64;99971.53;4935451;29;19927;-71
2022/07/08 08:30:10;;;;;;;;;;;;;;;24.97;45.83;99961.84;4934648;29;19982;-71
2022/07/08 08:32:38;;;;;;;;;;;;;;;24.95;45.56;99965.47;4932149;29;20333;-69
2022/07/08 08:35:07;;;;;;;;;;;;;;;24.99;45.55;99973.06;4936293;29;20377;-70
2022/07/08 08:37:36;;;;;;;;;;;;;;;24.99;44.88;99966.97;4935763;29;19930;-69
2022/07/08 08:40:04;;;;;;;;;;;;;;;25.08;45.60;99967.31;4938910;29;19970;-68
2022/07/08 08:42:33;;;;;;;;;;;;;;;25.24;45.98;99964.69;4940090;29;20293;-69
2022/07/08 08:45:03;;;;;;;;;;;;;;;25.49;45.95;99972.00;4939339;29;19929;-69
2022/07/08 08:47:33;;;;;;;;;;;;;;;25.66;45.46;99969.25;4939373;29;20262;-69
2022/07/08 08:50:53;;;;;;;;;;;;;;;25.69;44.54;99971.72;4939266;29;20047;-69
2022/07/08 08:52:53;;;;;;;;;;;;;;;25.66;44.40;99964.03;4939369;29;19930;-69
2022/07/08 08:55:26;;;;;;;;;;;;;;;25.86;44.41;99971.56;4939211;29;19926;-69
2022/07/08 08:57:57;;;;;;;;;;;;;;;26.00;43.67;99987.28;4931364;29;20345;-69
2022/07/08 09:00:27;;;;;;;;;;;;;;;25.97;43.84;99979.63;4937207;29;19981;-69
2022/07/08 09:02:57;;;;;;;;;;;;;;;26.04;43.53;99980.94;4939115;29;19923;-70
2022/07/08 09:05:27;;;;;;;;;;;;;;;26.20;44.07;99981.72;4922813;29;19950;-70
2022/07/08 09:07:56;;;;;;;;;;;;;;;26.46;43.36;99973.19;4938984;29;19922;-68
2022/07/08 09:10:24;;;;;;;;;;;;;;;26.50;42.76;99989.53;4938757;29;19930;-70
2022/07/08 09:13:04;;;;;;;;;;;;;;;26.22;42.41;99979.91;4939270;29;19945;-69
2022/07/08 09:15:35;;;;;;;;;;;;;;;26.21;41.94;99972.97;4938745;29;19958;-70
2022/07/08 09:18:06;;;;;;;;;;;;;;;26.40;41.99;99973.53;4928673;29;20005;-69
2022/07/08 09:20:38;;;;;;;;;;;;;;;26.48;41.87;99979.16;4919811;29;19923;-70
2022/07/08 09:23:09;;;;;;;;;;;;;;;26.58;41.64;99972.41;4922552;29;19966;-70
2022/07/08 09:25:38;;;;;;;;;;;;;;;26.55;41.68;99972.59;4927910;29;19929;-69
2022/07/08 09:28:06;;;;;;;;;;;;;;;26.43;41.77;99978.59;4919526;29;19923;-68
2022/07/08 09:30:36;;;;;;;;;;;;;;;26.38;42.09;99970.16;4919540;29;19923;-69
2022/07/08 09:33:04;;;;;;;;;;;;;;;26.35;43.11;99975.59;4936934;29;19957;-69
2022/07/08 09:35:34;;;;;;;;;;;;;;;26.30;43.68;99972.41;4938477;29;19923;-70
2022/07/08 09:38:04;;;;;;;;;;;;;;;26.32;44.07;99980.19;4938479;29;19923;-70
2022/07/08 09:40:33;;;;;;;;;;;;;;;26.10;43.52;99975.38;4938664;29;19984;-70
2022/07/08 09:43:02;;;;;;;;;;;;;;;25.97;43.69;99974.38;4936237;29;19923;-71
2022/07/08 09:45:32;;;;;;;;;;;;;;;25.99;44.41;99982.97;4933122;29;19922;-71
2022/07/08 09:48:05;;;;;;;;;;;;;;;26.11;44.51;99986.69;4938214;29;19922;-70
2022/07/08 09:50:38;;;;;;;;;;;;;;;26.25;44.40;99982.31;4938490;29;19927;-69
2022/07/08 09:53:28;;;;;;;;;;;;;;;26.50;44.21;99985.13;4920663;29;19926;-70
2022/07/08 09:55:58;;;;;;;;;;;;;;;26.58;43.32;99987.28;4936525;29;20385;-70
2022/07/08 09:58:28;;;;;;;;;;;;;;;26.61;43.41;99982.69;4919409;29;19923;-70
2022/07/08 10:00:57;;;;;;;;;;;;;;;26.58;43.35;99988.13;4918710;29;19971;-70
2022/07/08 10:03:28;;;;;;;;;;;;;;;26.55;43.58;99982.22;4918953;29;19955;-70
2022/07/08 10:05:57;;;;;;;;;;;;;;;26.55;43.07;99983.06;4919010;29;20017;-71
2022/07/08 10:08:26;;;;;;;;;;;;;;;26.61;43.26;99977.44;4918891;29;20366;-71
2022/07/08 10:10:58;;;;;;;;;;;;;;;26.54;42.71;99991.84;4919138;29;19998;-69
2022/07/08 10:13:27;;;;;;;;;;;;;;;26.69;43.31;99984.00;4921077;29;20017;-71
2022/07/08 10:15:59;;;;;;;;;;;;;;;26.70;42.13;99990.91;4926959;29;19930;-71
2022/07/08 10:18:34;;;;;;;;;;;;;;;26.66;42.21;99992.06;4918000;29;19927;-70
2022/07/08 10:21:05;;;;;;;;;;;;;;;26.73;42.10;99996.78;4919085;29;19958;-69
2022/07/08 10:23:37;;;;;;;;;;;;;;;26.82;41.87;99995.44;4918667;29;19927;-69
2022/07/08 10:26:07;;;;;;;;;;;;;;;27.01;42.79;99988.94;4919225;29;19923;-70
2022/07/08 10:28:36;;;;;;;;;;;;;;;27.11;42.36;99986.59;4918890;29;19929;-70
2022/07/08 10:31:18;;;;;;;;;;;;;;;27.03;41.62;99999.31;4933702;29;19922;-69
2022/07/08 10:33:49;;;;;;;;;;;;;;;27.01;42.07;99985.47;4919759;29;19946;-69
2022/07/08 10:36:19;;;;;;;;;;;;;;;27.08;42.38;99997.25;4911710;29;20437;-70
2022/07/08 10:38:49;;;;;;;;;;;;;;;27.18;42.70;99990.50;4920372;29;20380;-71
2022/07/08 10:41:19;;;;;;;;;;;;;;;27.13;41.58;99996.03;4933203;29;19923;-70
2022/07/08 10:43:52;;;;;;;;;;;;;;;27.12;41.30;99990.88;4926590;29;19923;-69
2022/07/08 10:46:20;;;;;;;;;;;;;;;27.19;40.88;99984.28;4918303;29;20028;-70
2022/07/08 10:48:58;;;;;;;;;;;;;;;27.27;40.71;99987.28;4918262;29;19923;-69
2022/07/08 10:51:38;;;;;;;;;;;;;;;27.19;40.15;99989.53;4918554;29;20041;-70
2022/07/08 10:54:10;;;;;;;;;;;;;;;27.27;40.31;99997.75;4918390;29;19923;-69
2022/07/08 10:56:49;;;;;;;;;;;;;;;27.40;41.02;99993.47;4918114;29;19970;-70
2022/07/08 10:59:19;;;;;;;;;;;;;;;27.41;40.76;100000.38;4918087;29;19923;-69
2022/07/08 11:01:51;;;;;;;;;;;;;;;27.53;40.65;99996.94;4917520;29;20025;-70
2022/07/08 11:04:26;;;;;;;;;;;;;;;27.58;40.52;99994.88;4928884;29;19954;-69
2022/07/08 11:06:56;;;;;;;;;;;;;;;27.60;40.47;100000.84;4937276;29;19989;-69
2022/07/08 11:09:25;;;;;;;;;;;;;;;27.55;39.87;100008.16;4937032;29;20042;-69
2022/07/08 11:11:55;;;;;;;;;;;;;;;27.60;40.19;100006.09;4936689;29;19930;-69
2022/07/08 11:14:23;;;;;;;;;;;;;;;27.57;39.61;100015.97;4936761;29;19922;-70
2022/07/08 11:16:51;;;;;;;;;;;;;;;27.51;39.54;100014.56;4936800;29;19922;-68
2022/07/08 11:19:20;;;;;;;;;;;;;;;27.49;39.71;100008.59;4936848;29;19923;-68
2022/07/08 11:21:50;;;;;;;;;;;;;;;27.47;39.55;100010.47;4936801;29;19923;-68
2022/07/08 11:24:39;;;;;;;;;;;;;;;27.67;39.58;99996.88;4937016;29;19990;-68
2022/07/08 11:27:08;;;;;;;;;;;;;;;27.80;39.29;100003.00;4937103;29;20072;-71
2022/07/08 11:29:37;;;;;;;;;;;;;;;27.87;39.22;100008.69;4936642;29;19930;-69
2022/07/08 11:32:06;;;;;;;;;;;;;;;28.04;39.78;100004.97;4936657;29;19958;-69
2022/07/08 11:34:34;;;;;;;;;;;;;;;28.15;39.55;100002.44;4936910;29;20308;-68
2022/07/08 11:37:04;;;;;;;;;;;;;;;28.21;39.48;100004.66;4935149;29;19986;-70
2022/07/08 11:39:34;;;;;;;;;;;;;;;28.08;38.74;100007.28;4936591;29;19961;-69
2022/07/08 11:42:02;;;;;;;;;;;;;;;27.86;39.17;100001.75;4936293;29;19958;-68
2022/07/08 11:44:31;;;;;;;;;;;;;;;27.81;38.12;100004.69;4936094;29;19923;-71
2022/07/08 11:46:59;;;;;;;;;;;;;;;27.71;38.14;100014.13;4934895;29;19955;-70
2022/07/08 11:49:28;;;;;;;;;;;;;;;27.63;38.41;99999.81;4917495;29;20386;-68
2022/07/08 11:51:57;;;;;;;;;;;;;;;27.83;40.57;99997.53;4924655;29;19965;-68
2022/07/08 11:54:28;;;;;;;;;;;;;;;27.95;40.30;100005.56;4936730;29;20300;-68
2022/07/08 11:56:57;;;;;;;;;;;;;;;28.14;39.63;100000.78;4936499;29;19922;-69
2022/07/08 11:59:26;;;;;;;;;;;;;;;28.25;39.34;100003.50;4936359;29;20369;-70
2022/07/08 12:01:56;;;;;;;;;;;;;;;28.16;38.95;100004.13;4936359;29;20032;-69
2022/07/08 12:04:24;;;;;;;;;;;;;;;28.13;38.89;100010.44;4936636;29;19923;-68
2022/07/08 12:06:54;;;;;;;;;;;;;;;28.23;39.11;99994.91;4934235;29;19930;-70
2022/07/08 12:09:23;;;;;;;;;;;;;;;28.30;39.34;99996.16;4927442;29;19923;-68
2022/07/08 12:11:55;;;;;;;;;;;;;;;28.33;39.14;100001.19;4919286;29;19927;-68
2022/07/08 12:14:24;;;;;;;;;;;;;;;28.28;38.87;99995.41;4938156;29;19958;-68
2022/07/08 12:16:54;;;;;;;;;;;;;;;28.30;38.65;99996.16;4938441;29;19985;-70
2022/07/08 12:19:26;;;;;;;;;;;;;;;28.32;38.63;100002.13;4940241;29;19933;-69
2022/07/08 12:21:55;;;;;;;;;;;;;;;28.40;39.02;99994.56;4939775;29;19926;-68
2022/07/08 12:24:25;;;;;;;;;;;;;;;28.50;38.87;99993.84;4938050;29;19926;-70
2022/07/08 12:26:58;;;;;;;;;;;;;;;28.38;39.05;99999.09;4920740;29;20346;-69
2022/07/08 12:29:27;;;;;;;;;;;;;;;28.11;38.95;99987.84;4921018;29;20289;-69
2022/07/08 12:31:56;;;;;;;;;;;;;;;28.22;40.40;99993.22;4936895;29;19927;-68
2022/07/08 12:34:25;;;;;;;;;;;;;;;28.48;39.75;99994.91;4939776;29;19923;-70
2022/07/08 12:36:53;;;;;;;;;;;;;;;28.42;39.59;99987.44;4934564;29;19927;-70
